sensor_id;sensor_type;location;lat;lon;timestamp;P1;durP1;ratioP1;P2;durP2;ratioP2
79365;SDS011;68833;53.160;17.920;2024-02-23T00:00:10;11.50;;;6.70;;
79365;SDS011;68833;53.160;17.920;2024-02-23T00:02:59;14.80;;;8.10;;
79365;SDS011;68833;53.160;17.920;2024-02-23T00:05:26;10.80;;;7.80;;
79365;SDS011;68833;53.160;17.920;2024-02-23T00:07:53;10.10;;;6.40;;
79365;SDS011;68833;53.160;17.920;2024-02-23T00:10:19;11.30;;;6.80;;
79365;SDS011;68833;53.160;17.920;2024-02-23T00:12:46;10.00;;;7.10;;
79365;SDS011;68833;53.160;17.920;2024-02-23T00:15:17;9.60;;;7.10;;
79365;SDS011;68833;53.160;17.920;2024-02-23T00:17:44;10.50;;;6.80;;
79365;SDS011;68833;53.160;17.920;2024-02-23T00:20:11;12.60;;;7.90;;
79365;SDS011;68833;53.160;17.920;2024-02-23T00:22:38;9.80;;;7.00;;
79365;SDS011;68833;53.160;17.920;2024-02-23T00:25:05;10.70;;;6.90;;
79365;SDS011;68833;53.160;17.920;2024-02-23T00:27:32;9.80;;;6.00;;
79365;SDS011;68833;53.160;17.920;2024-02-23T00:29:59;10.10;;;6.10;;
79365;SDS011;68833;53.160;17.920;2024-02-23T00:32:26;10.50;;;6.30;;
79365;SDS011;68833;53.160;17.920;2024-02-23T00:34:54;11.50;;;6.10;;
79365;SDS011;68833;53.160;17.920;2024-02-23T00:37:22;11.10;;;6.80;;
79365;SDS011;68833;53.160;17.920;2024-02-23T00:39:49;10.30;;;6.20;;
79365;SDS011;68833;53.160;17.920;2024-02-23T00:42:17;9.20;;;6.40;;
79365;SDS011;68833;53.160;17.920;2024-02-23T00:44:44;9.60;;;5.80;;
79365;SDS011;68833;53.160;17.920;2024-02-23T00:47:11;7.80;;;5.80;;
79365;SDS011;68833;53.160;17.920;2024-02-23T00:49:37;8.70;;;6.00;;
79365;SDS011;68833;53.160;17.920;2024-02-23T00:52:05;9.80;;;6.30;;
79365;SDS011;68833;53.160;17.920;2024-02-23T00:54:32;10.30;;;6.40;;
79365;SDS011;68833;53.160;17.920;2024-02-23T00:56:58;10.60;;;7.00;;
79365;SDS011;68833;53.160;17.920;2024-02-23T00:59:26;10.70;;;7.50;;
79365;SDS011;68833;53.160;17.920;2024-02-23T01:01:53;7.90;;;5.20;;
79365;SDS011;68833;53.160;17.920;2024-02-23T01:04:21;8.90;;;6.00;;
79365;SDS011;68833;53.160;17.920;2024-02-23T01:06:49;9.50;;;5.50;;
79365;SDS011;68833;53.160;17.920;2024-02-23T01:09:16;10.20;;;6.90;;
79365;SDS011;68833;53.160;17.920;2024-02-23T01:11:47;9.80;;;6.10;;
79365;SDS011;68833;53.160;17.920;2024-02-23T01:14:14;11.30;;;7.00;;
79365;SDS011;68833;53.160;17.920;2024-02-23T01:16:41;10.20;;;6.70;;
79365;SDS011;68833;53.160;17.920;2024-02-23T01:19:08;8.40;;;5.70;;
79365;SDS011;68833;53.160;17.920;2024-02-23T01:21:36;7.70;;;4.90;;
79365;SDS011;68833;53.160;17.920;2024-02-23T01:24:03;8.30;;;5.80;;
79365;SDS011;68833;53.160;17.920;2024-02-23T01:26:30;11.10;;;6.30;;
79365;SDS011;68833;53.160;17.920;2024-02-23T01:28:57;7.40;;;5.10;;
79365;SDS011;68833;53.160;17.920;2024-02-23T01:31:25;9.70;;;5.80;;
79365;SDS011;68833;53.160;17.920;2024-02-23T01:33:52;8.00;;;6.00;;
79365;SDS011;68833;53.160;17.920;2024-02-23T01:36:19;8.40;;;5.60;;
79365;SDS011;68833;53.160;17.920;2024-02-23T01:38:46;7.00;;;5.30;;
79365;SDS011;68833;53.160;17.920;2024-02-23T01:41:13;6.60;;;4.60;;
79365;SDS011;68833;53.160;17.920;2024-02-23T01:43:40;9.30;;;5.70;;
79365;SDS011;68833;53.160;17.920;2024-02-23T01:46:07;9.10;;;5.80;;
79365;SDS011;68833;53.160;17.920;2024-02-23T01:48:35;9.50;;;6.40;;
79365;SDS011;68833;53.160;17.920;2024-02-23T01:51:02;9.20;;;6.00;;
79365;SDS011;68833;53.160;17.920;2024-02-23T01:53:29;8.60;;;5.40;;
79365;SDS011;68833;53.160;17.920;2024-02-23T01:55:57;9.20;;;6.50;;
79365;SDS011;68833;53.160;17.920;2024-02-23T01:58:26;8.10;;;5.20;;
79365;SDS011;68833;53.160;17.920;2024-02-23T02:00:53;9.50;;;6.50;;
79365;SDS011;68833;53.160;17.920;2024-02-23T02:10:20;8.60;;;5.50;;
79365;SDS011;68833;53.160;17.920;2024-02-23T02:12:48;7.50;;;5.30;;
79365;SDS011;68833;53.160;17.920;2024-02-23T02:15:15;6.40;;;4.90;;
79365;SDS011;68833;53.160;17.920;2024-02-23T02:17:42;9.90;;;6.10;;
79365;SDS011;68833;53.160;17.920;2024-02-23T02:20:11;10.70;;;5.50;;
79365;SDS011;68833;53.160;17.920;2024-02-23T02:22:39;8.50;;;6.00;;
79365;SDS011;68833;53.160;17.920;2024-02-23T02:25:07;8.40;;;5.00;;
79365;SDS011;68833;53.160;17.920;2024-02-23T02:27:34;7.90;;;6.40;;
79365;SDS011;68833;53.160;17.920;2024-02-23T02:30:01;6.80;;;4.30;;
79365;SDS011;68833;53.160;17.920;2024-02-23T02:32:28;5.70;;;3.80;;
79365;SDS011;68833;53.160;17.920;2024-02-23T02:34:55;11.30;;;6.50;;
79365;SDS011;68833;53.160;17.920;2024-02-23T02:37:22;7.20;;;5.10;;
79365;SDS011;68833;53.160;17.920;2024-02-23T02:39:49;7.30;;;5.10;;
79365;SDS011;68833;53.160;17.920;2024-02-23T02:42:16;6.80;;;4.40;;
79365;SDS011;68833;53.160;17.920;2024-02-23T02:44:43;7.70;;;4.70;;
79365;SDS011;68833;53.160;17.920;2024-02-23T02:47:10;6.80;;;5.50;;
79365;SDS011;68833;53.160;17.920;2024-02-23T02:49:39;5.50;;;4.20;;
79365;SDS011;68833;53.160;17.920;2024-02-23T02:52:06;6.50;;;4.30;;
79365;SDS011;68833;53.160;17.920;2024-02-23T02:54:35;6.30;;;4.70;;
79365;SDS011;68833;53.160;17.920;2024-02-23T02:57:02;6.50;;;4.20;;
79365;SDS011;68833;53.160;17.920;2024-02-23T02:59:29;6.10;;;4.60;;
79365;SDS011;68833;53.160;17.920;2024-02-23T03:01:56;6.70;;;4.50;;
79365;SDS011;68833;53.160;17.920;2024-02-23T03:04:24;5.70;;;3.90;;
79365;SDS011;68833;53.160;17.920;2024-02-23T03:06:51;6.60;;;4.70;;
79365;SDS011;68833;53.160;17.920;2024-02-23T03:09:18;6.70;;;4.00;;
79365;SDS011;68833;53.160;17.920;2024-02-23T03:11:45;6.50;;;4.20;;
79365;SDS011;68833;53.160;17.920;2024-02-23T03:14:12;4.80;;;3.20;;
79365;SDS011;68833;53.160;17.920;2024-02-23T03:16:39;4.20;;;3.20;;
79365;SDS011;68833;53.160;17.920;2024-02-23T03:19:06;6.40;;;3.80;;
79365;SDS011;68833;53.160;17.920;2024-02-23T03:21:34;6.40;;;3.90;;
79365;SDS011;68833;53.160;17.920;2024-02-23T03:24:01;5.50;;;3.70;;
79365;SDS011;68833;53.160;17.920;2024-02-23T03:26:29;5.60;;;3.90;;
79365;SDS011;68833;53.160;17.920;2024-02-23T03:28:56;5.70;;;3.90;;
79365;SDS011;68833;53.160;17.920;2024-02-23T03:31:23;5.00;;;3.40;;
79365;SDS011;68833;53.160;17.920;2024-02-23T03:33:50;4.90;;;3.00;;
79365;SDS011;68833;53.160;17.920;2024-02-23T03:36:17;5.30;;;3.20;;
79365;SDS011;68833;53.160;17.920;2024-02-23T03:38:44;4.40;;;3.10;;
79365;SDS011;68833;53.160;17.920;2024-02-23T03:41:11;4.60;;;3.60;;
79365;SDS011;68833;53.160;17.920;2024-02-23T03:43:38;3.40;;;2.70;;
79365;SDS011;68833;53.160;17.920;2024-02-23T03:46:05;4.80;;;3.50;;
79365;SDS011;68833;53.160;17.920;2024-02-23T03:48:32;4.00;;;2.70;;
79365;SDS011;68833;53.160;17.920;2024-02-23T03:51:00;3.80;;;2.60;;
79365;SDS011;68833;53.160;17.920;2024-02-23T03:53:27;4.50;;;3.40;;
79365;SDS011;68833;53.160;17.920;2024-02-23T03:55:54;5.10;;;3.40;;
79365;SDS011;68833;53.160;17.920;2024-02-23T03:58:21;3.80;;;3.00;;
79365;SDS011;68833;53.160;17.920;2024-02-23T04:00:48;4.90;;;3.20;;
79365;SDS011;68833;53.160;17.920;2024-02-23T04:03:15;3.60;;;2.40;;
79365;SDS011;68833;53.160;17.920;2024-02-23T04:05:42;4.50;;;2.90;;
79365;SDS011;68833;53.160;17.920;2024-02-23T04:08:09;3.90;;;2.80;;
79365;SDS011;68833;53.160;17.920;2024-02-23T04:10:36;5.10;;;3.10;;
79365;SDS011;68833;53.160;17.920;2024-02-23T04:13:03;4.60;;;3.40;;
79365;SDS011;68833;53.160;17.920;2024-02-23T04:15:30;4.30;;;3.30;;
79365;SDS011;68833;53.160;17.920;2024-02-23T04:17:57;3.60;;;2.60;;
79365;SDS011;68833;53.160;17.920;2024-02-23T04:20:23;4.60;;;3.00;;
79365;SDS011;68833;53.160;17.920;2024-02-23T04:22:50;4.30;;;2.40;;
79365;SDS011;68833;53.160;17.920;2024-02-23T04:25:17;3.60;;;2.70;;
79365;SDS011;68833;53.160;17.920;2024-02-23T04:27:44;6.20;;;3.80;;
79365;SDS011;68833;53.160;17.920;2024-02-23T04:30:11;4.20;;;2.50;;
79365;SDS011;68833;53.160;17.920;2024-02-23T04:32:38;4.50;;;2.60;;
79365;SDS011;68833;53.160;17.920;2024-02-23T04:35:05;2.90;;;2.20;;
79365;SDS011;68833;53.160;17.920;2024-02-23T04:37:33;5.20;;;3.00;;
79365;SDS011;68833;53.160;17.920;2024-02-23T04:40:00;3.60;;;2.40;;
79365;SDS011;68833;53.160;17.920;2024-02-23T04:42:27;3.30;;;2.40;;
79365;SDS011;68833;53.160;17.920;2024-02-23T04:44:54;4.40;;;2.60;;
79365;SDS011;68833;53.160;17.920;2024-02-23T04:47:21;5.50;;;3.30;;
79365;SDS011;68833;53.160;17.920;2024-02-23T04:49:48;4.60;;;2.40;;
79365;SDS011;68833;53.160;17.920;2024-02-23T04:52:16;5.40;;;2.40;;
79365;SDS011;68833;53.160;17.920;2024-02-23T04:54:43;2.90;;;1.90;;
79365;SDS011;68833;53.160;17.920;2024-02-23T04:57:10;3.60;;;3.10;;
79365;SDS011;68833;53.160;17.920;2024-02-23T04:59:37;3.50;;;2.60;;
79365;SDS011;68833;53.160;17.920;2024-02-23T05:02:04;4.00;;;3.00;;
79365;SDS011;68833;53.160;17.920;2024-02-23T05:04:31;4.00;;;2.80;;
79365;SDS011;68833;53.160;17.920;2024-02-23T05:06:59;4.40;;;2.80;;
79365;SDS011;68833;53.160;17.920;2024-02-23T05:09:28;4.00;;;2.40;;
79365;SDS011;68833;53.160;17.920;2024-02-23T05:11:55;4.30;;;2.50;;
79365;SDS011;68833;53.160;17.920;2024-02-23T05:14:22;5.70;;;2.40;;
79365;SDS011;68833;53.160;17.920;2024-02-23T05:16:49;3.80;;;3.10;;
79365;SDS011;68833;53.160;17.920;2024-02-23T05:19:17;3.20;;;2.50;;
79365;SDS011;68833;53.160;17.920;2024-02-23T05:21:44;4.20;;;2.90;;
79365;SDS011;68833;53.160;17.920;2024-02-23T05:24:11;6.30;;;4.00;;
79365;SDS011;68833;53.160;17.920;2024-02-23T05:26:39;5.60;;;3.50;;
79365;SDS011;68833;53.160;17.920;2024-02-23T05:29:06;4.10;;;2.80;;
79365;SDS011;68833;53.160;17.920;2024-02-23T05:31:49;6.40;;;3.80;;
79365;SDS011;68833;53.160;17.920;2024-02-23T05:34:18;5.40;;;3.60;;
79365;SDS011;68833;53.160;17.920;2024-02-23T05:36:46;5.40;;;3.00;;
79365;SDS011;68833;53.160;17.920;2024-02-23T05:39:14;4.00;;;2.70;;
79365;SDS011;68833;53.160;17.920;2024-02-23T05:41:41;3.30;;;2.10;;
79365;SDS011;68833;53.160;17.920;2024-02-23T05:44:08;2.60;;;1.80;;
79365;SDS011;68833;53.160;17.920;2024-02-23T05:46:36;4.00;;;2.70;;
79365;SDS011;68833;53.160;17.920;2024-02-23T05:49:03;3.60;;;2.60;;
79365;SDS011;68833;53.160;17.920;2024-02-23T05:51:31;2.80;;;1.90;;
79365;SDS011;68833;53.160;17.920;2024-02-23T05:53:58;2.90;;;2.10;;
79365;SDS011;68833;53.160;17.920;2024-02-23T05:56:25;4.00;;;2.20;;
79365;SDS011;68833;53.160;17.920;2024-02-23T05:58:52;3.80;;;2.80;;
79365;SDS011;68833;53.160;17.920;2024-02-23T06:01:19;3.40;;;2.40;;
79365;SDS011;68833;53.160;17.920;2024-02-23T06:03:46;3.00;;;1.90;;
79365;SDS011;68833;53.160;17.920;2024-02-23T06:06:13;2.60;;;1.70;;
79365;SDS011;68833;53.160;17.920;2024-02-23T06:08:41;3.30;;;1.60;;
79365;SDS011;68833;53.160;17.920;2024-02-23T06:11:09;2.60;;;1.60;;
79365;SDS011;68833;53.160;17.920;2024-02-23T06:13:36;2.90;;;2.10;;
79365;SDS011;68833;53.160;17.920;2024-02-23T06:16:04;2.80;;;2.00;;
79365;SDS011;68833;53.160;17.920;2024-02-23T06:18:36;2.60;;;2.00;;
79365;SDS011;68833;53.160;17.920;2024-02-23T06:21:11;3.50;;;2.10;;
79365;SDS011;68833;53.160;17.920;2024-02-23T06:23:40;3.40;;;2.10;;
79365;SDS011;68833;53.160;17.920;2024-02-23T06:26:08;3.00;;;1.50;;
79365;SDS011;68833;53.160;17.920;2024-02-23T06:28:35;3.30;;;1.80;;
79365;SDS011;68833;53.160;17.920;2024-02-23T06:31:04;1.80;;;1.10;;
79365;SDS011;68833;53.160;17.920;2024-02-23T06:33:32;2.70;;;1.80;;
79365;SDS011;68833;53.160;17.920;2024-02-23T06:35:59;2.30;;;1.50;;
79365;SDS011;68833;53.160;17.920;2024-02-23T06:38:26;1.90;;;1.00;;
79365;SDS011;68833;53.160;17.920;2024-02-23T06:40:53;1.60;;;1.30;;
79365;SDS011;68833;53.160;17.920;2024-02-23T06:43:22;2.80;;;1.30;;
79365;SDS011;68833;53.160;17.920;2024-02-23T06:45:50;2.60;;;1.00;;
79365;SDS011;68833;53.160;17.920;2024-02-23T06:48:18;2.00;;;0.90;;
79365;SDS011;68833;53.160;17.920;2024-02-23T06:50:45;2.10;;;0.80;;
79365;SDS011;68833;53.160;17.920;2024-02-23T06:53:12;1.30;;;0.90;;
79365;SDS011;68833;53.160;17.920;2024-02-23T06:55:39;1.60;;;0.80;;
79365;SDS011;68833;53.160;17.920;2024-02-23T06:58:06;1.00;;;0.70;;
79365;SDS011;68833;53.160;17.920;2024-02-23T07:00:33;1.40;;;0.60;;
79365;SDS011;68833;53.160;17.920;2024-02-23T07:03:01;1.30;;;0.70;;
79365;SDS011;68833;53.160;17.920;2024-02-23T07:05:30;1.10;;;0.70;;
79365;SDS011;68833;53.160;17.920;2024-02-23T07:07:57;0.80;;;0.60;;
79365;SDS011;68833;53.160;17.920;2024-02-23T07:10:24;2.80;;;1.10;;
79365;SDS011;68833;53.160;17.920;2024-02-23T07:12:52;1.90;;;0.80;;
79365;SDS011;68833;53.160;17.920;2024-02-23T07:15:24;2.70;;;1.00;;
79365;SDS011;68833;53.160;17.920;2024-02-23T07:17:52;2.40;;;1.10;;
79365;SDS011;68833;53.160;17.920;2024-02-23T07:20:19;2.70;;;1.10;;
79365;SDS011;68833;53.160;17.920;2024-02-23T07:22:47;3.20;;;1.80;;
79365;SDS011;68833;53.160;17.920;2024-02-23T07:25:18;2.20;;;1.40;;
79365;SDS011;68833;53.160;17.920;2024-02-23T07:27:48;2.00;;;0.90;;
79365;SDS011;68833;53.160;17.920;2024-02-23T07:30:16;1.60;;;0.90;;
79365;SDS011;68833;53.160;17.920;2024-02-23T07:32:44;1.80;;;0.80;;
79365;SDS011;68833;53.160;17.920;2024-02-23T07:35:13;2.10;;;1.50;;
79365;SDS011;68833;53.160;17.920;2024-02-23T07:37:40;5.00;;;1.00;;
79365;SDS011;68833;53.160;17.920;2024-02-23T07:40:07;2.80;;;1.00;;
79365;SDS011;68833;53.160;17.920;2024-02-23T07:42:34;2.10;;;1.10;;
79365;SDS011;68833;53.160;17.920;2024-02-23T07:45:04;1.70;;;1.20;;
79365;SDS011;68833;53.160;17.920;2024-02-23T07:47:33;2.60;;;1.00;;
79365;SDS011;68833;53.160;17.920;2024-02-23T07:50:00;2.10;;;1.30;;
79365;SDS011;68833;53.160;17.920;2024-02-23T07:52:27;3.20;;;1.20;;
79365;SDS011;68833;53.160;17.920;2024-02-23T07:54:54;1.90;;;0.80;;
79365;SDS011;68833;53.160;17.920;2024-02-23T07:57:21;1.60;;;0.90;;
79365;SDS011;68833;53.160;17.920;2024-02-23T07:59:48;2.50;;;0.80;;
79365;SDS011;68833;53.160;17.920;2024-02-23T08:02:15;1.60;;;1.00;;
79365;SDS011;68833;53.160;17.920;2024-02-23T08:04:42;2.10;;;1.20;;
79365;SDS011;68833;53.160;17.920;2024-02-23T08:07:10;5.10;;;1.40;;
79365;SDS011;68833;53.160;17.920;2024-02-23T08:09:37;2.30;;;0.90;;
79365;SDS011;68833;53.160;17.920;2024-02-23T08:12:04;2.30;;;1.20;;
79365;SDS011;68833;53.160;17.920;2024-02-23T08:14:32;3.20;;;1.00;;
79365;SDS011;68833;53.160;17.920;2024-02-23T08:17:00;2.00;;;0.90;;
79365;SDS011;68833;53.160;17.920;2024-02-23T08:19:27;3.20;;;1.40;;
79365;SDS011;68833;53.160;17.920;2024-02-23T08:21:54;4.10;;;1.40;;
79365;SDS011;68833;53.160;17.920;2024-02-23T08:24:21;4.30;;;1.70;;
79365;SDS011;68833;53.160;17.920;2024-02-23T08:26:50;6.30;;;2.70;;
79365;SDS011;68833;53.160;17.920;2024-02-23T08:29:17;7.60;;;2.40;;
79365;SDS011;68833;53.160;17.920;2024-02-23T08:31:45;3.70;;;1.60;;
79365;SDS011;68833;53.160;17.920;2024-02-23T08:34:12;4.20;;;1.90;;
79365;SDS011;68833;53.160;17.920;2024-02-23T08:36:39;7.70;;;4.60;;
79365;SDS011;68833;53.160;17.920;2024-02-23T08:39:06;3.00;;;1.50;;
79365;SDS011;68833;53.160;17.920;2024-02-23T08:41:34;3.20;;;1.60;;
79365;SDS011;68833;53.160;17.920;2024-02-23T08:44:01;3.80;;;1.60;;
79365;SDS011;68833;53.160;17.920;2024-02-23T08:46:29;3.40;;;1.40;;
79365;SDS011;68833;53.160;17.920;2024-02-23T08:48:56;2.60;;;1.30;;
79365;SDS011;68833;53.160;17.920;2024-02-23T08:51:23;2.30;;;0.80;;
79365;SDS011;68833;53.160;17.920;2024-02-23T08:53:50;4.60;;;1.30;;
79365;SDS011;68833;53.160;17.920;2024-02-23T08:56:17;3.60;;;1.60;;
79365;SDS011;68833;53.160;17.920;2024-02-23T08:58:44;3.60;;;1.70;;
79365;SDS011;68833;53.160;17.920;2024-02-23T09:01:11;3.70;;;1.70;;
79365;SDS011;68833;53.160;17.920;2024-02-23T09:03:38;4.50;;;1.90;;
79365;SDS011;68833;53.160;17.920;2024-02-23T09:06:05;3.00;;;1.50;;
79365;SDS011;68833;53.160;17.920;2024-02-23T09:08:32;3.10;;;1.70;;
79365;SDS011;68833;53.160;17.920;2024-02-23T09:10:59;3.70;;;1.40;;
79365;SDS011;68833;53.160;17.920;2024-02-23T09:13:26;3.20;;;1.80;;
79365;SDS011;68833;53.160;17.920;2024-02-23T09:15:54;3.50;;;1.10;;
79365;SDS011;68833;53.160;17.920;2024-02-23T09:18:21;3.60;;;1.30;;
79365;SDS011;68833;53.160;17.920;2024-02-23T09:20:48;2.80;;;1.30;;
79365;SDS011;68833;53.160;17.920;2024-02-23T09:23:15;2.60;;;1.20;;
79365;SDS011;68833;53.160;17.920;2024-02-23T09:25:42;2.60;;;1.20;;
79365;SDS011;68833;53.160;17.920;2024-02-23T09:28:09;2.10;;;1.00;;
79365;SDS011;68833;53.160;17.920;2024-02-23T09:30:37;3.70;;;1.60;;
79365;SDS011;68833;53.160;17.920;2024-02-23T09:33:05;3.00;;;1.50;;
79365;SDS011;68833;53.160;17.920;2024-02-23T09:35:32;4.20;;;1.60;;
79365;SDS011;68833;53.160;17.920;2024-02-23T09:37:59;2.50;;;1.30;;
79365;SDS011;68833;53.160;17.920;2024-02-23T09:40:26;4.30;;;1.70;;
79365;SDS011;68833;53.160;17.920;2024-02-23T09:42:57;3.90;;;1.70;;
79365;SDS011;68833;53.160;17.920;2024-02-23T09:45:25;4.50;;;1.60;;
79365;SDS011;68833;53.160;17.920;2024-02-23T09:47:53;3.80;;;1.90;;
79365;SDS011;68833;53.160;17.920;2024-02-23T09:50:22;5.50;;;2.10;;
79365;SDS011;68833;53.160;17.920;2024-02-23T09:52:51;3.70;;;1.30;;
79365;SDS011;68833;53.160;17.920;2024-02-23T09:55:23;2.00;;;1.10;;
79365;SDS011;68833;53.160;17.920;2024-02-23T09:57:51;2.60;;;0.80;;
79365;SDS011;68833;53.160;17.920;2024-02-23T10:00:23;2.00;;;1.00;;
79365;SDS011;68833;53.160;17.920;2024-02-23T10:02:50;1.90;;;0.90;;
79365;SDS011;68833;53.160;17.920;2024-02-23T10:05:17;1.80;;;0.60;;
79365;SDS011;68833;53.160;17.920;2024-02-23T10:07:44;0.60;;;0.40;;
79365;SDS011;68833;53.160;17.920;2024-02-23T10:10:13;1.40;;;0.70;;
79365;SDS011;68833;53.160;17.920;2024-02-23T10:12:40;2.10;;;0.80;;
79365;SDS011;68833;53.160;17.920;2024-02-23T10:15:07;2.00;;;0.90;;
79365;SDS011;68833;53.160;17.920;2024-02-23T10:17:34;1.30;;;0.60;;
79365;SDS011;68833;53.160;17.920;2024-02-23T10:20:01;1.40;;;0.90;;
79365;SDS011;68833;53.160;17.920;2024-02-23T10:22:31;1.20;;;0.70;;
79365;SDS011;68833;53.160;17.920;2024-02-23T10:24:58;3.40;;;1.10;;
79365;SDS011;68833;53.160;17.920;2024-02-23T10:27:25;1.80;;;0.80;;
79365;SDS011;68833;53.160;17.920;2024-02-23T10:29:53;2.80;;;1.00;;
79365;SDS011;68833;53.160;17.920;2024-02-23T10:32:20;3.80;;;1.50;;
79365;SDS011;68833;53.160;17.920;2024-02-23T10:34:50;4.00;;;1.60;;
79365;SDS011;68833;53.160;17.920;2024-02-23T10:37:19;3.20;;;0.70;;
79365;SDS011;68833;53.160;17.920;2024-02-23T10:39:47;1.40;;;0.80;;
79365;SDS011;68833;53.160;17.920;2024-02-23T10:42:20;2.20;;;1.30;;
79365;SDS011;68833;53.160;17.920;2024-02-23T10:44:50;4.60;;;1.20;;
79365;SDS011;68833;53.160;17.920;2024-02-23T10:47:19;3.10;;;0.80;;
79365;SDS011;68833;53.160;17.920;2024-02-23T10:49:48;2.30;;;1.00;;
79365;SDS011;68833;53.160;17.920;2024-02-23T10:52:15;4.20;;;1.80;;
79365;SDS011;68833;53.160;17.920;2024-02-23T10:54:45;2.90;;;1.80;;
79365;SDS011;68833;53.160;17.920;2024-02-23T10:57:13;2.30;;;1.30;;
79365;SDS011;68833;53.160;17.920;2024-02-23T10:59:40;2.00;;;1.00;;
79365;SDS011;68833;53.160;17.920;2024-02-23T11:03:55;1.80;;;0.90;;
79365;SDS011;68833;53.160;17.920;2024-02-23T11:06:27;2.40;;;2.20;;
79365;SDS011;68833;53.160;17.920;2024-02-23T11:09:04;2.10;;;0.70;;
79365;SDS011;68833;53.160;17.920;2024-02-23T11:11:31;1.30;;;0.80;;
79365;SDS011;68833;53.160;17.920;2024-02-23T11:13:58;1.20;;;0.60;;
79365;SDS011;68833;53.160;17.920;2024-02-23T11:16:29;1.90;;;1.10;;
79365;SDS011;68833;53.160;17.920;2024-02-23T11:19:01;3.10;;;1.20;;
79365;SDS011;68833;53.160;17.920;2024-02-23T11:21:34;2.00;;;1.00;;
79365;SDS011;68833;53.160;17.920;2024-02-23T11:24:04;2.50;;;1.00;;
79365;SDS011;68833;53.160;17.920;2024-02-23T11:26:31;1.20;;;0.90;;
79365;SDS011;68833;53.160;17.920;2024-02-23T11:29:09;1.50;;;0.80;;
79365;SDS011;68833;53.160;17.920;2024-02-23T11:31:36;1.50;;;0.80;;
79365;SDS011;68833;53.160;17.920;2024-02-23T11:34:09;1.70;;;0.80;;
79365;SDS011;68833;53.160;17.920;2024-02-23T11:36:36;1.80;;;0.60;;
79365;SDS011;68833;53.160;17.920;2024-02-23T11:39:04;1.40;;;0.80;;
79365;SDS011;68833;53.160;17.920;2024-02-23T11:41:31;2.60;;;1.60;;
79365;SDS011;68833;53.160;17.920;2024-02-23T11:43:57;2.40;;;1.00;;
79365;SDS011;68833;53.160;17.920;2024-02-23T11:46:29;2.50;;;1.10;;
79365;SDS011;68833;53.160;17.920;2024-02-23T11:48:55;2.10;;;1.00;;
79365;SDS011;68833;53.160;17.920;2024-02-23T11:51:22;1.70;;;0.70;;
79365;SDS011;68833;53.160;17.920;2024-02-23T11:53:50;2.90;;;2.00;;
79365;SDS011;68833;53.160;17.920;2024-02-23T11:56:16;2.40;;;1.40;;
79365;SDS011;68833;53.160;17.920;2024-02-23T11:58:44;2.40;;;1.20;;
79365;SDS011;68833;53.160;17.920;2024-02-23T12:01:10;3.50;;;2.30;;
79365;SDS011;68833;53.160;17.920;2024-02-23T12:03:37;4.20;;;1.10;;
79365;SDS011;68833;53.160;17.920;2024-02-23T12:06:05;2.30;;;1.20;;
79365;SDS011;68833;53.160;17.920;2024-02-23T12:08:33;2.20;;;1.30;;
79365;SDS011;68833;53.160;17.920;2024-02-23T12:11:05;2.30;;;1.30;;
79365;SDS011;68833;53.160;17.920;2024-02-23T12:13:34;1.40;;;0.90;;
79365;SDS011;68833;53.160;17.920;2024-02-23T12:16:01;2.00;;;0.90;;
79365;SDS011;68833;53.160;17.920;2024-02-23T12:18:28;1.80;;;0.80;;
79365;SDS011;68833;53.160;17.920;2024-02-23T12:21:01;3.30;;;1.50;;
79365;SDS011;68833;53.160;17.920;2024-02-23T12:23:40;4.50;;;2.10;;
79365;SDS011;68833;53.160;17.920;2024-02-23T12:26:10;2.20;;;1.10;;
79365;SDS011;68833;53.160;17.920;2024-02-23T12:28:39;4.30;;;1.60;;
79365;SDS011;68833;53.160;17.920;2024-02-23T12:31:06;2.10;;;1.00;;
79365;SDS011;68833;53.160;17.920;2024-02-23T12:33:33;2.10;;;0.80;;
79365;SDS011;68833;53.160;17.920;2024-02-23T12:36:01;2.30;;;1.00;;
79365;SDS011;68833;53.160;17.920;2024-02-23T12:38:28;1.40;;;0.80;;
79365;SDS011;68833;53.160;17.920;2024-02-23T12:40:55;2.60;;;1.00;;
79365;SDS011;68833;53.160;17.920;2024-02-23T12:43:21;2.10;;;1.00;;
79365;SDS011;68833;53.160;17.920;2024-02-23T12:45:50;1.80;;;0.80;;
79365;SDS011;68833;53.160;17.920;2024-02-23T12:48:17;2.10;;;1.00;;
79365;SDS011;68833;53.160;17.920;2024-02-23T12:50:44;1.80;;;1.00;;
79365;SDS011;68833;53.160;17.920;2024-02-23T12:53:53;3.10;;;1.40;;
79365;SDS011;68833;53.160;17.920;2024-02-23T12:56:05;1.20;;;0.70;;
79365;SDS011;68833;53.160;17.920;2024-02-23T12:58:31;1.30;;;0.90;;
79365;SDS011;68833;53.160;17.920;2024-02-23T13:00:57;1.40;;;0.70;;
79365;SDS011;68833;53.160;17.920;2024-02-23T13:03:27;2.10;;;1.20;;
79365;SDS011;68833;53.160;17.920;2024-02-23T13:05:55;2.70;;;1.50;;
79365;SDS011;68833;53.160;17.920;2024-02-23T13:08:22;4.70;;;2.70;;
79365;SDS011;68833;53.160;17.920;2024-02-23T13:10:49;4.20;;;2.00;;
79365;SDS011;68833;53.160;17.920;2024-02-23T13:13:16;2.70;;;1.30;;
79365;SDS011;68833;53.160;17.920;2024-02-23T13:15:43;3.00;;;1.00;;
79365;SDS011;68833;53.160;17.920;2024-02-23T13:20:38;1.10;;;0.70;;
79365;SDS011;68833;53.160;17.920;2024-02-23T13:23:07;1.50;;;0.50;;
79365;SDS011;68833;53.160;17.920;2024-02-23T13:25:35;1.40;;;1.00;;
79365;SDS011;68833;53.160;17.920;2024-02-23T13:28:01;1.50;;;0.80;;
79365;SDS011;68833;53.160;17.920;2024-02-23T13:30:28;1.10;;;0.70;;
79365;SDS011;68833;53.160;17.920;2024-02-23T13:32:54;1.20;;;0.70;;
79365;SDS011;68833;53.160;17.920;2024-02-23T13:35:20;1.40;;;0.90;;
79365;SDS011;68833;53.160;17.920;2024-02-23T13:37:47;1.70;;;1.20;;
79365;SDS011;68833;53.160;17.920;2024-02-23T13:40:14;2.00;;;1.10;;
79365;SDS011;68833;53.160;17.920;2024-02-23T13:42:40;2.60;;;1.00;;
79365;SDS011;68833;53.160;17.920;2024-02-23T13:45:07;3.70;;;1.10;;
79365;SDS011;68833;53.160;17.920;2024-02-23T13:47:35;2.00;;;0.80;;
79365;SDS011;68833;53.160;17.920;2024-02-23T13:50:01;1.20;;;0.50;;
79365;SDS011;68833;53.160;17.920;2024-02-23T13:52:28;1.70;;;1.10;;
79365;SDS011;68833;53.160;17.920;2024-02-23T13:54:56;1.40;;;0.70;;
79365;SDS011;68833;53.160;17.920;2024-02-23T13:57:22;2.30;;;1.00;;
79365;SDS011;68833;53.160;17.920;2024-02-23T13:59:48;0.90;;;0.60;;
79365;SDS011;68833;53.160;17.920;2024-02-23T14:02:14;2.80;;;0.70;;
79365;SDS011;68833;53.160;17.920;2024-02-23T14:04:41;2.00;;;0.70;;
79365;SDS011;68833;53.160;17.920;2024-02-23T14:07:07;1.70;;;0.70;;
79365;SDS011;68833;53.160;17.920;2024-02-23T14:09:33;1.00;;;0.70;;
79365;SDS011;68833;53.160;17.920;2024-02-23T14:12:00;1.10;;;0.60;;
79365;SDS011;68833;53.160;17.920;2024-02-23T14:14:26;3.20;;;1.20;;
79365;SDS011;68833;53.160;17.920;2024-02-23T14:16:52;3.00;;;0.80;;
79365;SDS011;68833;53.160;17.920;2024-02-23T14:19:18;2.50;;;0.90;;
79365;SDS011;68833;53.160;17.920;2024-02-23T14:21:46;3.20;;;1.60;;
79365;SDS011;68833;53.160;17.920;2024-02-23T14:24:14;3.20;;;1.10;;
79365;SDS011;68833;53.160;17.920;2024-02-23T14:26:40;4.20;;;2.10;;
79365;SDS011;68833;53.160;17.920;2024-02-23T14:29:06;5.10;;;3.20;;
79365;SDS011;68833;53.160;17.920;2024-02-23T14:31:32;3.30;;;2.10;;
79365;SDS011;68833;53.160;17.920;2024-02-23T14:33:59;3.10;;;2.00;;
79365;SDS011;68833;53.160;17.920;2024-02-23T14:36:25;4.90;;;2.80;;
79365;SDS011;68833;53.160;17.920;2024-02-23T14:38:52;6.20;;;3.60;;
79365;SDS011;68833;53.160;17.920;2024-02-23T14:41:18;6.80;;;3.60;;
79365;SDS011;68833;53.160;17.920;2024-02-23T14:43:45;8.80;;;4.10;;
79365;SDS011;68833;53.160;17.920;2024-02-23T14:46:11;8.70;;;4.60;;